sensor_id;sensor_type;location;lat;lon;timestamp;P1;durP1;ratioP1;P2;durP2;ratioP2
40815;SDS011;26535;48.788;9.214;2023-03-03T00:01:26;50.90;;;24.63;;
40815;SDS011;26535;48.788;9.214;2023-03-03T00:03:52;50.45;;;24.50;;
40815;SDS011;26535;48.788;9.214;2023-03-03T00:06:19;51.50;;;25.05;;
40815;SDS011;26535;48.788;9.214;2023-03-03T00:08:45;50.58;;;25.02;;
40815;SDS011;26535;48.788;9.214;2023-03-03T00:11:11;52.83;;;26.85;;
40815;SDS011;26535;48.788;9.214;2023-03-03T00:16:16;50.75;;;25.00;;
40815;SDS011;26535;48.788;9.214;2023-03-03T00:18:49;50.67;;;25.10;;
40815;SDS011;26535;48.788;9.214;2023-03-03T00:21:23;54.13;;;25.13;;
40815;SDS011;26535;48.788;9.214;2023-03-03T00:23:53;58.72;;;26.35;;
40815;SDS011;26535;48.788;9.214;2023-03-03T00:26:35;51.35;;;26.35;;
40815;SDS011;26535;48.788;9.214;2023-03-03T00:29:17;52.25;;;23.85;;
40815;SDS011;26535;48.788;9.214;2023-03-03T06:03:59;53.85;;;26.15;;
40815;SDS011;26535;48.788;9.214;2023-03-03T06:06:25;52.28;;;25.33;;
40815;SDS011;26535;48.788;9.214;2023-03-03T06:08:52;51.70;;;25.30;;
40815;SDS011;26535;48.788;9.214;2023-03-03T06:11:18;48.90;;;24.15;;
40815;SDS011;26535;48.788;9.214;2023-03-03T06:13:44;50.60;;;25.05;;
40815;SDS011;26535;48.788;9.214;2023-03-03T06:16:10;53.97;;;27.20;;
40815;SDS011;26535;48.788;9.214;2023-03-03T06:18:35;47.13;;;24.10;;
40815;SDS011;26535;48.788;9.214;2023-03-03T06:21:01;44.78;;;22.60;;
40815;SDS011;26535;48.788;9.214;2023-03-03T06:23:27;50.03;;;24.05;;
40815;SDS011;26535;48.788;9.214;2023-03-03T06:25:53;44.80;;;21.50;;
40815;SDS011;26535;48.788;9.214;2023-03-03T06:28:19;44.83;;;21.73;;
40815;SDS011;26535;48.788;9.214;2023-03-03T06:30:44;42.40;;;21.35;;
40815;SDS011;26535;48.788;9.214;2023-03-03T06:33:10;40.58;;;20.35;;
40815;SDS011;26535;48.788;9.214;2023-03-03T06:35:36;45.85;;;21.50;;
40815;SDS011;26535;48.788;9.214;2023-03-03T06:38:02;41.38;;;21.40;;
40815;SDS011;26535;48.788;9.214;2023-03-03T06:40:27;37.38;;;20.05;;
40815;SDS011;26535;48.788;9.214;2023-03-03T06:42:53;38.03;;;19.85;;
40815;SDS011;26535;48.788;9.214;2023-03-03T06:45:19;37.10;;;20.45;;
40815;SDS011;26535;48.788;9.214;2023-03-03T06:47:45;41.75;;;20.70;;
40815;SDS011;26535;48.788;9.214;2023-03-03T06:50:10;40.42;;;19.60;;
40815;SDS011;26535;48.788;9.214;2023-03-03T06:52:36;37.75;;;20.85;;
40815;SDS011;26535;48.788;9.214;2023-03-03T06:55:09;40.45;;;20.38;;
40815;SDS011;26535;48.788;9.214;2023-03-03T06:57:42;38.88;;;20.08;;
40815;SDS011;26535;48.788;9.214;2023-03-03T07:02:55;38.72;;;21.05;;
40815;SDS011;26535;48.788;9.214;2023-03-03T07:05:24;37.30;;;20.77;;
40815;SDS011;26535;48.788;9.214;2023-03-03T07:07:53;38.13;;;19.63;;
40815;SDS011;26535;48.788;9.214;2023-03-03T07:10:24;39.50;;;19.20;;
40815;SDS011;26535;48.788;9.214;2023-03-03T07:12:51;40.15;;;20.40;;
40815;SDS011;26535;48.788;9.214;2023-03-03T07:15:22;41.95;;;20.58;;
40815;SDS011;26535;48.788;9.214;2023-03-03T07:17:54;37.50;;;19.98;;
40815;SDS011;26535;48.788;9.214;2023-03-03T07:20:29;38.70;;;20.35;;
40815;SDS011;26535;48.788;9.214;2023-03-03T07:22:59;41.03;;;20.83;;
40815;SDS011;26535;48.788;9.214;2023-03-03T07:25:33;38.53;;;18.77;;
40815;SDS011;26535;48.788;9.214;2023-03-03T07:30:48;37.50;;;19.80;;
40815;SDS011;26535;48.788;9.214;2023-03-03T07:33:24;36.63;;;19.23;;
40815;SDS011;26535;48.788;9.214;2023-03-03T07:35:58;39.00;;;20.27;;
40815;SDS011;26535;48.788;9.214;2023-03-03T07:38:41;39.08;;;19.00;;
40815;SDS011;26535;48.788;9.214;2023-03-03T07:41:16;37.08;;;19.70;;
40815;SDS011;26535;48.788;9.214;2023-03-03T07:46:35;37.05;;;19.65;;
40815;SDS011;26535;48.788;9.214;2023-03-03T07:49:22;34.22;;;19.73;;
40815;SDS011;26535;48.788;9.214;2023-03-03T07:51:58;40.97;;;21.00;;
40815;SDS011;26535;48.788;9.214;2023-03-03T07:57:11;40.20;;;19.90;;
40815;SDS011;26535;48.788;9.214;2023-03-03T07:59:47;37.40;;;20.70;;
40815;SDS011;26535;48.788;9.214;2023-03-03T08:04:52;38.88;;;21.48;;
40815;SDS011;26535;48.788;9.214;2023-03-03T08:07:19;36.58;;;20.48;;
40815;SDS011;26535;48.788;9.214;2023-03-03T08:09:47;39.58;;;20.15;;
40815;SDS011;26535;48.788;9.214;2023-03-03T08:12:23;40.83;;;20.50;;
40815;SDS011;26535;48.788;9.214;2023-03-03T08:15:10;33.05;;;19.05;;
40815;SDS011;26535;48.788;9.214;2023-03-03T08:17:39;34.08;;;18.88;;
40815;SDS011;26535;48.788;9.214;2023-03-03T08:23:09;37.65;;;19.25;;
40815;SDS011;26535;48.788;9.214;2023-03-03T08:25:36;37.28;;;19.88;;
40815;SDS011;26535;48.788;9.214;2023-03-03T08:28:03;36.25;;;19.80;;
40815;SDS011;26535;48.788;9.214;2023-03-03T08:30:29;36.78;;;20.48;;
40815;SDS011;26535;48.788;9.214;2023-03-03T08:32:56;36.20;;;19.02;;
40815;SDS011;26535;48.788;9.214;2023-03-03T08:35:22;34.05;;;19.58;;
40815;SDS011;26535;48.788;9.214;2023-03-03T08:37:47;39.20;;;19.85;;
40815;SDS011;26535;48.788;9.214;2023-03-03T08:40:13;38.80;;;19.55;;
40815;SDS011;26535;48.788;9.214;2023-03-03T08:42:39;40.00;;;20.52;;
40815;SDS011;26535;48.788;9.214;2023-03-03T08:45:05;38.92;;;20.60;;
40815;SDS011;26535;48.788;9.214;2023-03-03T08:47:31;39.47;;;19.65;;
40815;SDS011;26535;48.788;9.214;2023-03-03T08:49:57;32.50;;;18.67;;
40815;SDS011;26535;48.788;9.214;2023-03-03T08:52:23;37.30;;;19.85;;
40815;SDS011;26535;48.788;9.214;2023-03-03T08:54:49;37.97;;;20.00;;
40815;SDS011;26535;48.788;9.214;2023-03-03T08:57:15;34.47;;;19.80;;
40815;SDS011;26535;48.788;9.214;2023-03-03T08:59:40;35.97;;;19.70;;
40815;SDS011;26535;48.788;9.214;2023-03-03T09:02:06;36.53;;;20.90;;
40815;SDS011;26535;48.788;9.214;2023-03-03T09:04:32;38.55;;;21.05;;
40815;SDS011;26535;48.788;9.214;2023-03-03T09:06:58;37.30;;;19.67;;
40815;SDS011;26535;48.788;9.214;2023-03-03T09:09:24;33.10;;;19.52;;
40815;SDS011;26535;48.788;9.214;2023-03-03T09:11:52;34.30;;;18.85;;
40815;SDS011;26535;48.788;9.214;2023-03-03T09:14:22;38.05;;;20.40;;
40815;SDS011;26535;48.788;9.214;2023-03-03T09:16:53;34.88;;;19.70;;
40815;SDS011;26535;48.788;9.214;2023-03-03T09:21:51;35.28;;;19.17;;
40815;SDS011;26535;48.788;9.214;2023-03-03T09:24:28;36.33;;;19.87;;
40815;SDS011;26535;48.788;9.214;2023-03-03T09:26:56;38.10;;;20.70;;
40815;SDS011;26535;48.788;9.214;2023-03-03T09:34:50;32.35;;;19.25;;
40815;SDS011;26535;48.788;9.214;2023-03-03T09:39:50;34.33;;;18.98;;
40815;SDS011;26535;48.788;9.214;2023-03-03T09:42:36;30.85;;;17.90;;
40815;SDS011;26535;48.788;9.214;2023-03-03T10:04:13;33.97;;;19.92;;
40815;SDS011;26535;48.788;9.214;2023-03-03T10:09:45;32.20;;;19.17;;
40815;SDS011;26535;48.788;9.214;2023-03-03T10:12:32;31.50;;;19.05;;
40815;SDS011;26535;48.788;9.214;2023-03-03T10:29:23;30.98;;;19.58;;
40815;SDS011;26535;48.788;9.214;2023-03-03T10:37:20;34.35;;;19.60;;
40815;SDS011;26535;48.788;9.214;2023-03-03T10:40:07;32.97;;;20.00;;
40815;SDS011;26535;48.788;9.214;2023-03-03T10:43:02;42.10;;;20.48;;
40815;SDS011;26535;48.788;9.214;2023-03-03T10:57:23;40.88;;;20.35;;
40815;SDS011;26535;48.788;9.214;2023-03-03T11:00:07;37.17;;;19.40;;
40815;SDS011;26535;48.788;9.214;2023-03-03T11:05:45;33.35;;;19.88;;
40815;SDS011;26535;48.788;9.214;2023-03-03T11:11:09;34.55;;;20.55;;
40815;SDS011;26535;48.788;9.214;2023-03-03T11:41:14;31.40;;;19.52;;
40815;SDS011;26535;48.788;9.214;2023-03-03T11:44:24;32.40;;;19.77;;
40815;SDS011;26535;48.788;9.214;2023-03-03T11:46:48;30.40;;;19.63;;
40815;SDS011;26535;48.788;9.214;2023-03-03T11:49:19;30.60;;;19.55;;
40815;SDS011;26535;48.788;9.214;2023-03-03T11:54:42;31.63;;;18.33;;
40815;SDS011;26535;48.788;9.214;2023-03-03T11:57:38;32.42;;;19.90;;
40815;SDS011;26535;48.788;9.214;2023-03-03T12:03:16;34.73;;;20.87;;
40815;SDS011;26535;48.788;9.214;2023-03-03T12:08:50;26.05;;;18.35;;
40815;SDS011;26535;48.788;9.214;2023-03-03T12:11:45;27.87;;;19.30;;
40815;SDS011;26535;48.788;9.214;2023-03-03T12:25:27;26.85;;;18.40;;
40815;SDS011;26535;48.788;9.214;2023-03-03T12:31:12;24.50;;;17.52;;
40815;SDS011;26535;48.788;9.214;2023-03-03T12:41:22;20.92;;;16.77;;
40815;SDS011;26535;48.788;9.214;2023-03-03T12:47:00;20.48;;;15.93;;
40815;SDS011;26535;48.788;9.214;2023-03-03T12:58:12;24.65;;;17.35;;
40815;SDS011;26535;48.788;9.214;2023-03-03T13:17:43;21.85;;;15.88;;
40815;SDS011;26535;48.788;9.214;2023-03-03T13:20:40;21.30;;;16.65;;
40815;SDS011;26535;48.788;9.214;2023-03-03T13:28:21;19.77;;;16.27;;
40815;SDS011;26535;48.788;9.214;2023-03-03T13:31:23;20.88;;;16.13;;
40815;SDS011;26535;48.788;9.214;2023-03-03T13:33:55;20.93;;;16.77;;
40815;SDS011;26535;48.788;9.214;2023-03-03T13:36:37;20.05;;;15.95;;
40815;SDS011;26535;48.788;9.214;2023-03-03T13:39:13;19.90;;;15.75;;
40815;SDS011;26535;48.788;9.214;2023-03-03T13:42:02;21.42;;;16.13;;
40815;SDS011;26535;48.788;9.214;2023-03-03T13:44:43;22.67;;;16.58;;
40815;SDS011;26535;48.788;9.214;2023-03-03T13:52:33;24.25;;;17.35;;
40815;SDS011;26535;48.788;9.214;2023-03-03T13:58:09;21.85;;;16.60;;
40815;SDS011;26535;48.788;9.214;2023-03-03T14:00:43;21.93;;;16.33;;
40815;SDS011;26535;48.788;9.214;2023-03-03T14:03:25;20.70;;;16.85;;
40815;SDS011;26535;48.788;9.214;2023-03-03T14:08:43;21.73;;;17.73;;
40815;SDS011;26535;48.788;9.214;2023-03-03T14:19:23;21.55;;;16.90;;
40815;SDS011;26535;48.788;9.214;2023-03-03T14:22:17;20.73;;;17.33;;
40815;SDS011;26535;48.788;9.214;2023-03-03T14:30:41;20.88;;;16.80;;
40815;SDS011;26535;48.788;9.214;2023-03-03T14:35:34;22.65;;;17.60;;
40815;SDS011;26535;48.788;9.214;2023-03-03T14:38:13;21.30;;;17.85;;
40815;SDS011;26535;48.788;9.214;2023-03-03T14:40:41;20.92;;;17.02;;
40815;SDS011;26535;48.788;9.214;2023-03-03T14:43:26;22.42;;;16.25;;
40815;SDS011;26535;48.788;9.214;2023-03-03T14:49:02;22.50;;;18.35;;
40815;SDS011;26535;48.788;9.214;2023-03-03T14:51:44;21.63;;;17.23;;
40815;SDS011;26535;48.788;9.214;2023-03-03T14:56:57;22.40;;;18.02;;
40815;SDS011;26535;48.788;9.214;2023-03-03T15:02:46;23.50;;;18.27;;
40815;SDS011;26535;48.788;9.214;2023-03-03T15:05:47;21.38;;;18.60;;
40815;SDS011;26535;48.788;9.214;2023-03-03T15:08:14;22.58;;;17.90;;
40815;SDS011;26535;48.788;9.214;2023-03-03T15:10:47;23.75;;;18.25;;
40815;SDS011;26535;48.788;9.214;2023-03-03T15:15:50;23.30;;;18.50;;
40815;SDS011;26535;48.788;9.214;2023-03-03T15:18:26;22.90;;;18.15;;
40815;SDS011;26535;48.788;9.214;2023-03-03T15:21:07;23.80;;;17.63;;
40815;SDS011;26535;48.788;9.214;2023-03-03T15:23:47;23.50;;;18.48;;
40815;SDS011;26535;48.788;9.214;2023-03-03T15:26:24;22.33;;;18.08;;
40815;SDS011;26535;48.788;9.214;2023-03-03T15:34:01;24.95;;;19.30;;
40815;SDS011;26535;48.788;9.214;2023-03-03T15:39:37;21.40;;;17.13;;
40815;SDS011;26535;48.788;9.214;2023-03-03T15:42:13;24.02;;;19.00;;
40815;SDS011;26535;48.788;9.214;2023-03-03T15:59:39;24.08;;;18.65;;
40815;SDS011;26535;48.788;9.214;2023-03-03T16:02:26;26.05;;;18.85;;
40815;SDS011;26535;48.788;9.214;2023-03-03T16:05:06;25.55;;;18.25;;
40815;SDS011;26535;48.788;9.214;2023-03-03T16:10:33;25.25;;;18.75;;
40815;SDS011;26535;48.788;9.214;2023-03-03T16:13:18;24.75;;;18.33;;
40815;SDS011;26535;48.788;9.214;2023-03-03T16:21:48;27.38;;;19.20;;
40815;SDS011;26535;48.788;9.214;2023-03-03T16:24:42;28.23;;;19.42;;
40815;SDS011;26535;48.788;9.214;2023-03-03T16:27:27;28.08;;;18.73;;
40815;SDS011;26535;48.788;9.214;2023-03-03T16:32:45;28.70;;;19.75;;
40815;SDS011;26535;48.788;9.214;2023-03-03T16:35:32;28.48;;;20.10;;
40815;SDS011;26535;48.788;9.214;2023-03-03T16:38:15;29.02;;;19.75;;
40815;SDS011;26535;48.788;9.214;2023-03-03T16:40:51;30.90;;;19.70;;
40815;SDS011;26535;48.788;9.214;2023-03-03T16:43:30;32.10;;;19.63;;
40815;SDS011;26535;48.788;9.214;2023-03-03T16:46:03;29.27;;;18.05;;
40815;SDS011;26535;48.788;9.214;2023-03-03T16:48:50;29.65;;;18.42;;
40815;SDS011;26535;48.788;9.214;2023-03-03T16:51:30;28.52;;;18.20;;
40815;SDS011;26535;48.788;9.214;2023-03-03T16:59:44;31.20;;;18.70;;
40815;SDS011;26535;48.788;9.214;2023-03-03T17:02:25;32.22;;;18.02;;
40815;SDS011;26535;48.788;9.214;2023-03-03T17:05:10;34.50;;;19.45;;
40815;SDS011;26535;48.788;9.214;2023-03-03T17:10:20;31.92;;;19.80;;
40815;SDS011;26535;48.788;9.214;2023-03-03T17:18:19;35.13;;;19.45;;
40815;SDS011;26535;48.788;9.214;2023-03-03T17:21:02;34.30;;;19.10;;
40815;SDS011;26535;48.788;9.214;2023-03-03T17:23:44;34.00;;;19.27;;
40815;SDS011;26535;48.788;9.214;2023-03-03T17:26:29;34.40;;;18.92;;
40815;SDS011;26535;48.788;9.214;2023-03-03T17:32:11;34.08;;;18.52;;
40815;SDS011;26535;48.788;9.214;2023-03-03T17:37:55;37.88;;;20.35;;
40815;SDS011;26535;48.788;9.214;2023-03-03T17:46:16;34.10;;;18.97;;
40815;SDS011;26535;48.788;9.214;2023-03-03T17:49:06;36.72;;;19.17;;
40815;SDS011;26535;48.788;9.214;2023-03-03T17:54:29;36.72;;;19.55;;
40815;SDS011;26535;48.788;9.214;2023-03-03T17:59:44;37.63;;;20.05;;
40815;SDS011;26535;48.788;9.214;2023-03-03T18:16:06;38.08;;;19.88;;
40815;SDS011;26535;48.788;9.214;2023-03-03T18:18:46;35.83;;;19.60;;
40815;SDS011;26535;48.788;9.214;2023-03-03T18:21:48;38.50;;;19.30;;
40815;SDS011;26535;48.788;9.214;2023-03-03T18:24:35;38.45;;;20.30;;
40815;SDS011;26535;48.788;9.214;2023-03-03T18:35:41;37.05;;;20.27;;
40815;SDS011;26535;48.788;9.214;2023-03-03T18:43:39;46.83;;;25.15;;
40815;SDS011;26535;48.788;9.214;2023-03-03T18:46:09;43.78;;;22.40;;
40815;SDS011;26535;48.788;9.214;2023-03-03T18:56:42;42.17;;;22.23;;
40815;SDS011;26535;48.788;9.214;2023-03-03T18:59:08;41.17;;;21.75;;
40815;SDS011;26535;48.788;9.214;2023-03-03T19:01:38;41.35;;;21.48;;
40815;SDS011;26535;48.788;9.214;2023-03-03T19:11:49;40.38;;;21.80;;
40815;SDS011;26535;48.788;9.214;2023-03-03T19:16:53;42.22;;;22.35;;
40815;SDS011;26535;48.788;9.214;2023-03-03T19:19:21;44.17;;;23.25;;
40815;SDS011;26535;48.788;9.214;2023-03-03T19:27:42;43.83;;;23.17;;
40815;SDS011;26535;48.788;9.214;2023-03-03T19:43:46;39.15;;;21.98;;
40815;SDS011;26535;48.788;9.214;2023-03-03T19:49:26;45.35;;;23.92;;
40815;SDS011;26535;48.788;9.214;2023-03-03T20:00:26;43.35;;;23.25;;
40815;SDS011;26535;48.788;9.214;2023-03-03T20:06:19;64.17;;;34.43;;
40815;SDS011;26535;48.788;9.214;2023-03-03T20:09:14;53.65;;;28.90;;
40815;SDS011;26535;48.788;9.214;2023-03-03T20:14:42;48.67;;;26.10;;
40815;SDS011;26535;48.788;9.214;2023-03-03T20:19:55;52.90;;;26.92;;
40815;SDS011;26535;48.788;9.214;2023-03-03T20:22:28;44.83;;;23.02;;
40815;SDS011;26535;48.788;9.214;2023-03-03T20:27:59;42.88;;;22.52;;
40815;SDS011;26535;48.788;9.214;2023-03-03T20:30:56;42.08;;;22.70;;
40815;SDS011;26535;48.788;9.214;2023-03-03T20:33:44;43.35;;;21.60;;
40815;SDS011;26535;48.788;9.214;2023-03-03T20:40:03;45.50;;;22.35;;
40815;SDS011;26535;48.788;9.214;2023-03-03T20:42:36;42.08;;;22.30;;
40815;SDS011;26535;48.788;9.214;2023-03-03T20:51:00;42.60;;;21.63;;
40815;SDS011;26535;48.788;9.214;2023-03-03T20:59:58;42.00;;;22.52;;
40815;SDS011;26535;48.788;9.214;2023-03-03T21:02:08;38.03;;;19.75;;
40815;SDS011;26535;48.788;9.214;2023-03-03T21:10:22;38.90;;;19.83;;
40815;SDS011;26535;48.788;9.214;2023-03-03T21:12:53;36.83;;;19.50;;
40815;SDS011;26535;48.788;9.214;2023-03-03T21:15:28;37.42;;;20.73;;
40815;SDS011;26535;48.788;9.214;2023-03-03T21:17:56;39.80;;;21.20;;
40815;SDS011;26535;48.788;9.214;2023-03-03T21:20:25;40.15;;;20.88;;
40815;SDS011;26535;48.788;9.214;2023-03-03T21:22:57;42.55;;;21.25;;
40815;SDS011;26535;48.788;9.214;2023-03-03T21:28:25;39.30;;;20.45;;
40815;SDS011;26535;48.788;9.214;2023-03-03T21:30:57;38.83;;;20.17;;
40815;SDS011;26535;48.788;9.214;2023-03-03T21:33:49;44.42;;;22.98;;
40815;SDS011;26535;48.788;9.214;2023-03-03T21:39:04;43.95;;;22.05;;
40815;SDS011;26535;48.788;9.214;2023-03-03T21:44:29;40.42;;;20.15;;
40815;SDS011;26535;48.788;9.214;2023-03-03T21:47:00;43.63;;;22.15;;
40815;SDS011;26535;48.788;9.214;2023-03-03T21:49:27;41.20;;;20.63;;
40815;SDS011;26535;48.788;9.214;2023-03-03T21:51:53;38.38;;;20.63;;
40815;SDS011;26535;48.788;9.214;2023-03-03T21:54:20;39.88;;;20.70;;
40815;SDS011;26535;48.788;9.214;2023-03-03T21:56:46;41.45;;;20.92;;
40815;SDS011;26535;48.788;9.214;2023-03-03T21:59:13;39.97;;;22.17;;
40815;SDS011;26535;48.788;9.214;2023-03-03T22:01:40;40.72;;;21.23;;
40815;SDS011;26535;48.788;9.214;2023-03-03T22:04:05;43.70;;;21.17;;
40815;SDS011;26535;48.788;9.214;2023-03-03T22:06:31;41.60;;;21.58;;
40815;SDS011;26535;48.788;9.214;2023-03-03T22:08:57;37.88;;;21.15;;
40815;SDS011;26535;48.788;9.214;2023-03-03T22:11:23;42.88;;;21.40;;
40815;SDS011;26535;48.788;9.214;2023-03-03T22:13:49;42.28;;;21.98;;
40815;SDS011;26535;48.788;9.214;2023-03-03T22:16:14;42.85;;;21.65;;
40815;SDS011;26535;48.788;9.214;2023-03-03T22:18:40;41.67;;;21.90;;
40815;SDS011;26535;48.788;9.214;2023-03-03T22:21:06;40.97;;;21.73;;
40815;SDS011;26535;48.788;9.214;2023-03-03T22:23:31;42.88;;;22.10;;
40815;SDS011;26535;48.788;9.214;2023-03-03T22:25:57;43.70;;;22.40;;
40815;SDS011;26535;48.788;9.214;2023-03-03T22:28:23;46.08;;;22.25;;
40815;SDS011;26535;48.788;9.214;2023-03-03T22:30:49;40.92;;;22.27;;
40815;SDS011;26535;48.788;9.214;2023-03-03T22:33:15;43.28;;;22.27;;
40815;SDS011;26535;48.788;9.214;2023-03-03T22:35:41;42.63;;;22.10;;
40815;SDS011;26535;48.788;9.214;2023-03-03T22:38:06;39.78;;;20.92;;
40815;SDS011;26535;48.788;9.214;2023-03-03T22:40:32;43.33;;;21.88;;
40815;SDS011;26535;48.788;9.214;2023-03-03T22:42:58;42.50;;;21.38;;
40815;SDS011;26535;48.788;9.214;2023-03-03T22:45:24;43.85;;;22.52;;
40815;SDS011;26535;48.788;9.214;2023-03-03T22:47:51;44.47;;;22.48;;
40815;SDS011;26535;48.788;9.214;2023-03-03T22:50:17;49.38;;;22.35;;
40815;SDS011;26535;48.788;9.214;2023-03-03T22:52:44;48.10;;;24.30;;
40815;SDS011;26535;48.788;9.214;2023-03-03T22:55:10;45.72;;;24.25;;
40815;SDS011;26535;48.788;9.214;2023-03-03T22:57:35;46.65;;;24.15;;
40815;SDS011;26535;48.788;9.214;2023-03-03T23:00:02;44.40;;;22.35;;
40815;SDS011;26535;48.788;9.214;2023-03-03T23:02:31;46.38;;;23.48;;
40815;SDS011;26535;48.788;9.214;2023-03-03T23:04:57;50.47;;;23.83;;
40815;SDS011;26535;48.788;9.214;2023-03-03T23:07:26;45.75;;;22.83;;
40815;SDS011;26535;48.788;9.214;2023-03-03T23:09:53;45.00;;;20.80;;
40815;SDS011;26535;48.788;9.214;2023-03-03T23:12:19;41.75;;;21.98;;
40815;SDS011;26535;48.788;9.214;2023-03-03T23:14:46;45.67;;;22.95;;
40815;SDS011;26535;48.788;9.214;2023-03-03T23:17:12;40.58;;;21.10;;
40815;SDS011;26535;48.788;9.214;2023-03-03T23:19:37;46.38;;;22.77;;
40815;SDS011;26535;48.788;9.214;2023-03-03T23:22:03;42.67;;;21.90;;
40815;SDS011;26535;48.788;9.214;2023-03-03T23:24:29;47.88;;;24.20;;
40815;SDS011;26535;48.788;9.214;2023-03-03T23:26:55;48.28;;;23.08;;
40815;SDS011;26535;48.788;9.214;2023-03-03T23:29:25;44.83;;;22.92;;
40815;SDS011;26535;48.788;9.214;2023-03-03T23:31:50;43.65;;;22.15;;
40815;SDS011;26535;48.788;9.214;2023-03-03T23:34:16;42.03;;;20.50;;
40815;SDS011;26535;48.788;9.214;2023-03-03T23:36:42;38.58;;;20.88;;
40815;SDS011;26535;48.788;9.214;2023-03-03T23:39:07;39.38;;;19.77;;
40815;SDS011;26535;48.788;9.214;2023-03-03T23:41:33;41.40;;;20.80;;
40815;SDS011;26535;48.788;9.214;2023-03-03T23:44:00;44.33;;;21.23;;
40815;SDS011;26535;48.788;9.214;2023-03-03T23:46:25;42.55;;;20.95;;
40815;SDS011;26535;48.788;9.214;2023-03-03T23:48:51;43.42;;;22.02;;
40815;SDS011;26535;48.788;9.214;2023-03-03T23:51:19;40.78;;;20.83;;
40815;SDS011;26535;48.788;9.214;2023-03-03T23:56:11;39.72;;;20.98;;
40815;SDS011;26535;48.788;9.214;2023-03-03T23:58:36;42.60;;;20.63;;
